Startpagina
METAR-TAF:

METAR-TAF

Vliegvelden :

Coeur d'Alene, Idaho, Verenigde Staten

breedte: 47-46N, lengte: 116-49W, hoogte: 707 m

Actueel weer

Dit bericht is 38 minuten geleden gemaakt, om 04:56 UTC
Wind 5 kt uit het oosten
Temperatuur -3°C
Vochtigheid 80%
Druk 1027 hPa
Zicht: 16.1 km
Onbewolkt

METAR: KCOE 180456Z AUTO 08005KT 10SM CLR M03/M06 A3033 RMK AO2 SLP314 T10281056 FZRANO

Tijdstip: 21:34 (05:34 UTC)

Verwachting

Dit bericht is 6 uur en het 9 minuten geleden gemaakt, om 23:25 UTC
Verwachting geldig van 18 om 00 UTC tot 18 om 24 UTC
Wind 4 kt uit het noordoosten
Zicht: 10 km
Weinig wolken op 25000 ft

TAF: KCOE 172325Z 1800/1824 04004KT P6SM FEW250

Waarnemingen en weersverwachtingen van meer dan 4000 vliegvelden (METAR en TAF).

De beschikbare stations zijn de gele en rode punten op de kaart.

Ga met uw muis naar het station om de naam te zien.

Klik dan om waarnemingen en weersverwachtingen te zien.

kaart wijzigen: klik op de groene knoppen met een zwart kruis om in te zoomen, op de groene knop met een streepje om uit te zoomen of op de groene pijlen voor aangrenzende kaarten.


METAR-TAF: